Time;durP1;ratioP1;P1;durP2;ratioP2;P2;SDS_P1;SDS_P2;PMS_P1;PMS_P2;Temp;Humidity;BMP_temperature;BMP_pressure;BME280_temperature;BME280_humidity;BME280_pressure;Samples;Min_cycle;Max_cycle;Signal;HPM_P1;HPM_P2
2021/01/22 00:00:41;;;;;;;12.32;8.07;;;;;;;3.00;82.22;94948.25;5022542;28;20065;-65
2021/01/22 00:03:07;;;;;;;13.27;7.60;;;;;;;3.06;81.71;94948.72;5018341;28;20109;-67
2021/01/22 00:05:33;;;;;;;11.65;7.00;;;;;;;3.11;81.70;94937.63;5023223;28;20056;-66
2021/01/22 00:07:58;;;;;;;13.25;6.70;;;;;;;3.05;82.28;94953.38;5023389;28;20048;-66
2021/01/22 00:10:24;;;;;;;11.90;7.18;;;;;;;3.06;80.56;94982.00;5018502;28;20863;-65
2021/01/22 00:12:49;;;;;;;16.13;7.55;;;;;;;2.84;82.15;95005.16;5004603;28;20041;-65
2021/01/22 00:15:15;;;;;;;14.85;7.78;;;;;;;2.91;81.40;95017.25;5019862;28;20038;-65
2021/01/22 00:17:44;;;;;;;10.88;5.90;;;;;;;2.91;81.75;95036.19;5023202;28;20505;-65
2021/01/22 00:20:10;;;;;;;10.10;5.67;;;;;;;2.81;82.08;95043.75;5018027;28;20045;-65
2021/01/22 00:22:36;;;;;;;12.90;6.65;;;;;;;2.75;82.43;95064.06;5021837;28;20049;-66
2021/01/22 00:25:02;;;;;;;13.75;5.63;;;;;;;2.96;81.18;95066.41;5022101;28;20041;-67
2021/01/22 00:27:27;;;;;;;11.90;6.70;;;;;;;3.11;81.42;95072.88;5021477;28;20030;-64
2021/01/22 00:29:52;;;;;;;13.75;6.75;;;;;;;3.13;81.28;95064.41;5026227;28;20045;-65
2021/01/22 00:32:18;;;;;;;10.07;6.22;;;;;;;3.18;81.31;95083.81;5029249;28;20050;-64
2021/01/22 00:34:43;;;;;;;11.32;6.47;;;;;;;3.10;81.03;95060.50;5029068;28;20088;-65
2021/01/22 00:37:08;;;;;;;11.25;6.72;;;;;;;3.00;81.43;95058.38;5017674;28;20064;-63
2021/01/22 00:39:34;;;;;;;16.13;8.00;;;;;;;2.87;82.27;95068.56;5023875;28;20061;-65
2021/01/22 00:41:59;;;;;;;13.48;6.97;;;;;;;2.87;82.72;95053.13;5022543;28;20034;-66
2021/01/22 00:44:25;;;;;;;12.43;6.72;;;;;;;2.81;nan;95045.63;5015624;28;20073;-67
2021/01/22 00:46:50;;;;;;;10.40;5.88;;;;;;;2.63;82.99;95070.41;5022647;28;20041;-66
2021/01/22 00:49:16;;;;;;;22.75;8.57;;;;;;;2.74;83.31;95067.94;5016756;28;20132;-67
2021/01/22 00:51:41;;;;;;;11.52;6.47;;;;;;;3.01;81.76;95046.44;5022052;28;20033;-66
2021/01/22 00:54:07;;;;;;;10.48;6.28;;;;;;;3.17;80.98;95030.06;5015117;28;20037;-64
2021/01/22 00:56:32;;;;;;;10.02;6.10;;;;;;;3.10;80.59;95022.63;5022593;28;20052;-65
2021/01/22 00:58:57;;;;;;;10.48;6.15;;;;;;;2.96;81.69;95031.25;5022953;28;20482;-66
2021/01/22 01:01:23;;;;;;;12.15;6.85;;;;;;;2.84;82.25;95037.59;5015741;28;20800;-65
2021/01/22 01:03:48;;;;;;;15.70;7.43;;;;;;;2.72;82.57;95053.19;5022462;28;20040;-66
2021/01/22 01:06:13;;;;;;;15.15;6.78;;;;;;;2.58;82.62;95037.47;5016404;28;20556;-66
2021/01/22 01:08:39;;;;;;;15.57;7.72;;;;;;;2.51;82.96;95048.16;5002738;28;20037;-64
2021/01/22 01:11:04;;;;;;;12.25;7.05;;;;;;;2.46;83.49;95058.09;5017852;28;20094;-65
2021/01/22 01:13:30;;;;;;;9.55;6.28;;;;;;;2.48;84.04;95055.84;5021099;28;20076;-66
2021/01/22 01:15:55;;;;;;;12.57;6.38;;;;;;;2.52;83.45;95060.50;4996304;28;20179;-64
2021/01/22 01:18:21;;;;;;;12.15;7.13;;;;;;;2.40;83.47;95069.53;5018646;28;20419;-65
2021/01/22 01:20:46;;;;;;;11.73;6.30;;;;;;;2.31;84.51;95082.47;5022202;28;20037;-67
2021/01/22 01:23:14;;;;;;;9.80;5.75;;;;;;;2.33;84.61;95088.31;5015621;28;20637;-64
2021/01/22 01:25:41;;;;;;;11.50;5.95;;;;;;;2.24;84.59;95093.91;5012359;28;20399;-67
2021/01/22 01:28:06;;;;;;;11.05;5.80;;;;;;;2.19;85.38;95094.16;5009162;28;20052;-66
2021/01/22 01:30:34;;;;;;;11.70;4.80;;;;;;;2.29;85.09;95102.50;5018571;28;20559;-65
2021/01/22 01:32:59;;;;;;;10.40;5.07;;;;;;;2.35;84.16;95129.25;5018106;28;20550;-67
2021/01/22 01:35:25;;;;;;;10.90;5.38;;;;;;;2.42;84.17;95130.19;5017299;28;20045;-66
2021/01/22 01:37:50;;;;;;;7.65;4.70;;;;;;;2.51;84.07;95126.53;5042473;28;20033;-64
2021/01/22 01:40:15;;;;;;;9.18;4.50;;;;;;;2.81;84.76;95118.63;5014352;28;20041;-67
2021/01/22 01:42:41;;;;;;;7.45;3.90;;;;;;;3.39;83.81;95105.09;5018396;28;20120;-66
2021/01/22 01:45:07;;;;;;;6.28;3.70;;;;;;;3.88;83.81;95090.06;5004714;28;20064;-66
2021/01/22 01:47:32;;;;;;;6.53;2.97;;;;;;;4.46;82.28;95085.50;5011672;28;20133;-64
2021/01/22 01:49:58;;;;;;;5.40;2.47;;;;;;;4.67;81.56;95101.28;5016412;28;20534;-65
2021/01/22 01:52:23;;;;;;;5.18;2.20;;;;;;;4.97;80.93;95098.56;5017556;28;20053;-65
2021/01/22 01:54:49;;;;;;;3.67;2.25;;;;;;;5.10;80.15;95104.53;5022253;28;20483;-66
2021/01/22 01:57:14;;;;;;;4.40;2.97;;;;;;;5.09;80.58;95103.72;5017258;28;20498;-64
2021/01/22 01:59:41;;;;;;;4.00;2.10;;;;;;;5.04;80.63;95098.66;5019889;28;20042;-65
2021/01/22 02:02:07;;;;;;;6.22;2.33;;;;;;;5.04;80.87;95130.41;5015407;28;21530;-69
2021/01/22 02:04:32;;;;;;;4.53;2.35;;;;;;;4.95;81.61;95136.91;5025927;28;20049;-66
2021/01/22 02:06:58;;;;;;;2.22;1.50;;;;;;;5.28;79.80;95102.78;5022626;28;20095;-66
2021/01/22 02:09:24;;;;;;;1.48;1.10;;;;;;;5.41;77.75;95132.41;5017402;28;20045;-67
2021/01/22 02:11:50;;;;;;;1.70;1.10;;;;;;;5.31;77.85;95123.78;5022672;28;20052;-67
2021/01/22 02:14:16;;;;;;;1.75;0.82;;;;;;;5.64;76.25;95110.53;5016772;28;20045;-65
2021/01/22 02:16:42;;;;;;;2.75;1.15;;;;;;;5.81;75.90;95092.84;5016046;28;20037;-66
2021/01/22 02:19:09;;;;;;;1.85;0.80;;;;;;;5.82;75.91;95106.06;5004659;28;20046;-67
2021/01/22 02:21:37;;;;;;;1.23;0.63;;;;;;;5.87;75.90;95075.03;5009745;28;20540;-66
2021/01/22 02:24:07;;;;;;;3.55;0.90;;;;;;;5.92;75.86;95053.75;5001501;28;20046;-64
2021/01/22 02:26:32;;;;;;;3.72;1.00;;;;;;;5.72;76.42;95044.25;5020788;28;20048;-66
2021/01/22 02:29:03;;;;;;;2.55;0.80;;;;;;;5.79;76.53;95046.25;5019533;28;20037;-66
2021/01/22 02:31:30;;;;;;;1.90;0.90;;;;;;;5.83;76.18;95038.91;5003280;28;20045;-66
2021/01/22 02:34:02;;;;;;;2.40;1.05;;;;;;;5.83;76.46;95047.03;5010657;28;20048;-66
2021/01/22 02:36:30;;;;;;;2.05;0.82;;;;;;;5.57;77.00;95062.34;5008876;28;20510;-65
2021/01/22 02:38:57;;;;;;;1.20;0.80;;;;;;;5.47;77.71;95087.47;5008668;28;20038;-65
2021/01/22 02:41:23;;;;;;;2.58;1.08;;;;;;;5.41;78.32;95076.16;4980569;28;21224;-66
2021/01/22 02:43:51;;;;;;;1.70;0.82;;;;;;;5.32;78.26;95086.56;5032761;28;20131;-65
2021/01/22 02:46:17;;;;;;;2.65;1.10;;;;;;;5.24;79.05;95085.69;5024481;28;20099;-66
2021/01/22 02:48:44;;;;;;;2.35;0.80;;;;;;;5.14;79.54;95081.69;5016254;28;20045;-67
2021/01/22 02:51:13;;;;;;;1.90;0.93;;;;;;;5.10;79.89;95071.97;5016364;28;20038;-64
2021/01/22 02:53:39;;;;;;;1.55;0.90;;;;;;;5.12;79.67;95058.81;5005560;28;20037;-65
2021/01/22 02:56:57;;;;;;;3.55;1.00;;;;;;;5.17;79.40;95063.91;5011358;28;20045;-66
2021/01/22 02:59:47;;;;;;;1.38;0.90;;;;;;;5.22;79.14;95041.88;4952226;28;20957;-68
2021/01/22 03:02:17;;;;;;;0.90;0.70;;;;;;;5.19;78.94;95037.16;5008085;28;20049;-66
2021/01/22 03:04:43;;;;;;;1.65;0.73;;;;;;;5.31;78.38;95036.09;5006414;28;20120;-67
2021/01/22 03:07:14;;;;;;;2.53;0.82;;;;;;;5.24;78.71;95027.91;5002589;28;20140;-66
2021/01/22 03:09:43;;;;;;;1.42;0.90;;;;;;;5.26;78.35;95018.25;5009253;28;20038;-67
2021/01/22 03:12:10;;;;;;;1.60;0.70;;;;;;;5.27;78.57;95002.72;5015259;28;20061;-67
2021/01/22 03:14:39;;;;;;;1.92;0.70;;;;;;;5.17;79.12;94991.41;5020905;28;20056;-67
2021/01/22 03:17:05;;;;;;;1.30;0.98;;;;;;;5.08;78.96;94992.88;5011923;28;20128;-67
2021/01/22 03:19:46;;;;;;;2.40;0.80;;;;;;;4.95;79.59;95003.97;5018270;28;20203;-68
2021/01/22 03:22:13;;;;;;;2.30;0.98;;;;;;;4.81;80.18;95009.25;5015763;28;20060;-68
2021/01/22 03:24:39;;;;;;;1.45;0.85;;;;;;;4.79;80.24;95009.63;5034563;28;20580;-67
2021/01/22 03:27:04;;;;;;;4.97;0.90;;;;;;;4.72;80.05;95012.25;5014074;28;20046;-67
2021/01/22 03:29:30;;;;;;;1.90;0.80;;;;;;;4.94;79.15;95010.53;5019947;28;20897;-67
2021/01/22 03:31:57;;;;;;;0.85;0.80;;;;;;;4.82;79.58;95008.09;5020106;28;20463;-66
2021/01/22 03:34:26;;;;;;;1.85;0.80;;;;;;;4.72;79.80;94984.34;5017085;28;20501;-66
2021/01/22 03:37:02;;;;;;;1.73;0.80;;;;;;;4.67;79.89;94990.88;5024971;28;20042;-65
2021/01/22 03:39:29;;;;;;;1.45;0.90;;;;;;;4.65;80.45;94985.03;5020334;28;20044;-65
2021/01/22 03:41:54;;;;;;;2.42;1.00;;;;;;;4.78;80.17;94988.28;5024590;28;20127;-67
2021/01/22 03:44:20;;;;;;;1.10;1.00;;;;;;;4.69;80.05;94990.50;5019847;28;20402;-66
2021/01/22 03:46:47;;;;;;;1.35;0.93;;;;;;;4.63;80.50;94990.06;5023623;28;20072;-68
2021/01/22 03:49:13;;;;;;;1.88;0.80;;;;;;;4.58;79.90;94984.97;5001363;28;20056;-66
2021/01/22 03:51:39;;;;;;;1.23;0.98;;;;;;;4.45;80.54;94975.50;5024859;28;20038;-66
2021/01/22 03:54:05;;;;;;;2.72;0.77;;;;;;;4.45;81.34;94970.06;5019745;28;20132;-67
2021/01/22 03:56:31;;;;;;;1.27;0.70;;;;;;;4.31;81.32;94973.41;5016598;28;20049;-66
2021/01/22 03:58:57;;;;;;;1.48;0.93;;;;;;;4.14;81.41;94961.97;5024465;28;20040;-67
2021/01/22 04:01:22;;;;;;;3.78;1.00;;;;;;;4.07;82.59;94974.63;5016032;28;20338;-68
2021/01/22 04:03:49;;;;;;;3.17;0.80;;;;;;;4.25;82.29;94983.00;5024826;28;20033;-67
2021/01/22 04:06:15;;;;;;;1.70;0.80;;;;;;;4.34;81.72;94989.72;5017130;28;20049;-67
2021/01/22 04:08:41;;;;;;;0.65;0.60;;;;;;;4.42;81.56;94989.81;5024194;28;20033;-66
2021/01/22 04:11:07;;;;;;;4.07;1.60;;;;;;;4.40;81.37;94992.88;5012315;28;20105;-68
2021/01/22 04:13:33;;;;;;;2.95;0.85;;;;;;;4.48;81.19;94988.31;5023451;28;20211;-66
2021/01/22 04:15:59;;;;;;;1.77;0.73;;;;;;;4.37;80.36;94993.59;5022596;28;20136;-67
2021/01/22 04:18:25;;;;;;;1.80;0.75;;;;;;;4.12;80.98;94987.84;5007776;28;20070;-69
2021/01/22 04:20:50;;;;;;;8.00;3.78;;;;;;;4.02;82.47;94981.94;5008559;28;20053;-69
2021/01/22 04:23:16;;;;;;;4.68;1.75;;;;;;;4.01;82.83;94964.09;4981917;28;20080;-67
2021/01/22 04:25:41;;;;;;;2.72;1.20;;;;;;;4.00;82.20;94961.78;5019916;28;20103;-68
2021/01/22 04:28:06;;;;;;;2.70;1.00;;;;;;;3.96;82.24;94961.72;5018952;28;20037;-67
2021/01/22 04:30:32;;;;;;;8.95;3.63;;;;;;;4.19;81.41;94956.19;5023081;28;20103;-69
2021/01/22 04:32:57;;;;;;;7.57;3.22;;;;;;;4.33;81.15;94944.78;5020837;28;20052;-64
2021/01/22 04:35:23;;;;;;;9.93;3.05;;;;;;;4.25;81.47;94942.34;5018872;28;20041;-68
2021/01/22 04:37:48;;;;;;;4.82;2.03;;;;;;;4.09;81.63;94953.34;5019631;28;20427;-66
2021/01/22 04:40:15;;;;;;;16.05;5.03;;;;;;;4.01;82.46;94947.06;5014689;28;20128;-67
2021/01/22 04:42:42;;;;;;;11.98;5.20;;;;;;;3.96;82.67;94942.78;5022540;28;20042;-67
2021/01/22 04:45:13;;;;;;;39.25;14.75;;;;;;;3.96;82.34;94933.84;5015459;28;20041;-64
2021/01/22 04:47:39;;;;;;;53.50;17.77;;;;;;;3.84;82.32;94937.56;5020496;28;20506;-66
2021/01/22 04:50:06;;;;;;;52.67;19.35;;;;;;;3.75;82.19;94953.31;5018562;28;20092;-65
2021/01/22 04:52:34;;;;;;;34.67;13.00;;;;;;;3.62;83.10;94955.44;5023159;28;20044;-65
2021/01/22 04:55:01;;;;;;;20.60;6.55;;;;;;;3.53;83.75;94939.44;5018330;28;20069;-65
2021/01/22 04:57:30;;;;;;;12.63;4.70;;;;;;;3.44;83.99;94906.44;5013074;28;20079;-66
2021/01/22 04:59:56;;;;;;;8.00;2.80;;;;;;;3.72;83.45;94905.28;5019406;28;20045;-65
2021/01/22 05:02:22;;;;;;;11.05;3.53;;;;;;;3.72;83.08;94902.56;5015165;28;20530;-66
2021/01/22 05:04:49;;;;;;;8.43;3.47;;;;;;;3.50;82.89;94893.38;5010205;28;20054;-67
2021/01/22 05:07:14;;;;;;;8.85;3.35;;;;;;;3.32;84.17;94899.31;5031047;28;20111;-66
2021/01/22 05:09:40;;;;;;;10.32;3.58;;;;;;;3.45;83.63;94902.59;5001303;28;20046;-66
2021/01/22 05:12:07;;;;;;;11.85;4.47;;;;;;;3.67;82.39;94916.44;5016304;28;20037;-66
2021/01/22 05:14:35;;;;;;;11.02;3.00;;;;;;;3.54;82.05;94923.97;5021611;28;20049;-65
2021/01/22 05:17:11;;;;;;;5.47;2.17;;;;;;;3.41;82.52;94932.31;5019651;28;20044;-66
2021/01/22 05:19:39;;;;;;;6.85;2.28;;;;;;;3.34;83.30;94953.84;5029959;28;20048;-66
2021/01/22 05:22:06;;;;;;;7.15;2.47;;;;;;;3.35;84.30;94941.09;5028211;28;20080;-65
2021/01/22 05:24:36;;;;;;;2.92;1.52;;;;;;;3.43;83.73;94931.94;5014303;28;20049;-66
2021/01/22 05:27:06;;;;;;;4.95;1.83;;;;;;;3.34;83.77;94932.19;5020010;28;20112;-65
2021/01/22 05:29:33;;;;;;;2.83;1.30;;;;;;;3.22;84.57;94930.47;5016193;28;20042;-67
2021/01/22 05:31:59;;;;;;;5.20;1.52;;;;;;;3.05;85.51;94945.25;5021042;28;20041;-63
2021/01/22 05:34:43;;;;;;;2.88;1.40;;;;;;;2.90;85.65;94945.38;4993687;28;20765;-66
2021/01/22 05:37:11;;;;;;;3.92;1.35;;;;;;;3.22;84.63;94945.91;5006589;28;20427;-65
2021/01/22 05:39:36;;;;;;;1.98;1.10;;;;;;;3.43;83.49;94940.84;5011496;28;20038;-66
2021/01/22 05:42:02;;;;;;;3.25;1.30;;;;;;;3.41;83.44;94931.53;5016930;28;20053;-63
2021/01/22 05:44:27;;;;;;;3.60;1.83;;;;;;;3.36;83.03;94932.59;5005477;28;20067;-67
2021/01/22 05:47:12;;;;;;;4.00;1.75;;;;;;;3.22;83.58;94938.59;5019817;28;20061;-67
2021/01/22 05:49:55;;;;;;;5.40;3.10;;;;;;;3.05;84.21;94925.56;5021372;28;20037;-67
2021/01/22 05:52:24;;;;;;;4.65;2.17;;;;;;;3.00;84.48;94918.50;5016024;28;20379;-66
2021/01/22 05:54:49;;;;;;;4.53;1.83;;;;;;;3.38;83.21;94924.91;5025415;28;20037;-65
2021/01/22 05:57:15;;;;;;;6.80;1.60;;;;;;;3.95;80.31;94911.41;5027336;28;20065;-66
2021/01/22 05:59:41;;;;;;;7.55;1.48;;;;;;;4.10;79.37;94908.88;5018224;28;20041;-66
2021/01/22 06:02:29;;;;;;;5.80;1.83;;;;;;;3.89;79.88;94896.63;5014903;28;20049;-65
2021/01/22 06:05:11;;;;;;;14.13;4.60;;;;;;;3.63;81.29;94905.56;5001629;28;20049;-65
2021/01/22 06:07:38;;;;;;;7.30;2.72;;;;;;;3.42;82.85;94900.59;4992899;28;20033;-67
2021/01/22 06:10:14;;;;;;;7.13;2.70;;;;;;;3.45;82.46;94911.47;5011676;28;20045;-65
2021/01/22 06:12:44;;;;;;;5.75;2.58;;;;;;;3.54;81.22;94916.63;5020911;28;20038;-68
2021/01/22 06:15:11;;;;;;;;;;;;;;;3.39;81.60;94912.94;5014121;28;20041;-66
2021/01/22 06:17:37;;;;;;;9.95;3.58;;;;;;;3.30;81.92;94915.13;5015822;28;20362;-67
2021/01/22 06:20:07;;;;;;;7.03;3.47;;;;;;;3.30;83.23;94914.34;5016706;28;20049;-65
2021/01/22 06:22:39;;;;;;;6.60;2.50;;;;;;;3.29;82.88;94929.00;5019988;28;20041;-67
2021/01/22 06:25:05;;;;;;;4.18;3.03;;;;;;;3.18;83.40;94921.50;5015610;28;20043;-66
2021/01/22 06:27:32;;;;;;;5.85;2.08;;;;;;;3.14;83.03;94926.09;5020996;28;20084;-68
2021/01/22 06:29:58;;;;;;;7.63;2.72;;;;;;;3.23;82.91;94917.72;5019772;28;20034;-68
2021/01/22 06:32:24;;;;;;;5.43;2.53;;;;;;;3.13;82.69;94937.25;5014792;28;20504;-67
2021/01/22 06:34:50;;;;;;;7.20;2.30;;;;;;;3.10;83.26;94930.66;5017924;28;20447;-67
2021/01/22 06:37:16;;;;;;;8.13;3.03;;;;;;;3.03;84.35;94931.31;5015818;28;20147;-64
2021/01/22 06:39:42;;;;;;;24.13;8.07;;;;;;;3.25;83.04;94942.50;5020679;28;20063;-65
2021/01/22 06:42:08;;;;;;;29.27;8.38;;;;;;;3.08;83.65;94924.84;4998115;28;20041;-66
2021/01/22 06:44:34;;;;;;;14.55;5.93;;;;;;;3.22;83.62;94914.25;5020546;28;20075;-67
2021/01/22 06:47:10;;;;;;;11.43;3.90;;;;;;;3.19;83.42;94919.59;5021632;28;20068;-67
2021/01/22 06:49:35;;;;;;;16.25;4.72;;;;;;;3.22;83.75;94911.53;5009290;28;20049;-66
2021/01/22 06:52:19;;;;;;;14.27;4.57;;;;;;;3.08;83.44;94918.63;5020637;28;20136;-66
2021/01/22 06:54:56;;;;;;;12.63;4.03;;;;;;;3.10;83.32;94925.25;4982443;28;20069;-66
2021/01/22 06:57:22;;;;;;;14.10;4.40;;;;;;;2.96;84.58;94909.56;5012936;28;20504;-66
2021/01/22 06:59:48;;;;;;;10.98;4.13;;;;;;;2.94;84.51;94897.56;5020416;28;20521;-66
2021/01/22 07:02:31;;;;;;;6.18;2.60;;;;;;;2.89;85.07;94889.75;5013678;28;20118;-64
2021/01/22 07:04:57;;;;;;;5.93;2.83;;;;;;;2.92;85.16;94892.50;5014755;28;20068;-65
2021/01/22 07:07:45;;;;;;;8.82;3.72;;;;;;;2.99;84.39;94887.22;5019576;28;20116;-65
2021/01/22 07:10:11;;;;;;;6.95;4.00;;;;;;;2.96;83.18;94884.44;5022674;28;20041;-65
2021/01/22 07:12:36;;;;;;;5.95;2.80;;;;;;;2.68;84.67;94870.09;5027681;28;20042;-66
2021/01/22 07:15:25;;;;;;;5.75;2.38;;;;;;;2.58;85.30;94867.22;5032370;28;20108;-64
2021/01/22 07:17:56;;;;;;;4.00;2.33;;;;;;;2.53;85.61;94864.78;5021136;28;20045;-66
2021/01/22 07:20:22;;;;;;;4.00;2.00;;;;;;;2.54;85.22;94852.84;5020725;28;20288;-65
2021/01/22 07:23:00;;;;;;;5.15;2.38;;;;;;;2.60;85.92;94857.59;5009653;28;20041;-66
2021/01/22 07:25:36;;;;;;;4.05;2.10;;;;;;;2.61;84.94;94858.34;5018695;28;20060;-65
2021/01/22 07:28:16;;;;;;;7.68;3.65;;;;;;;2.56;85.67;94855.97;5026421;28;20038;-65
2021/01/22 07:30:43;;;;;;;8.02;4.07;;;;;;;2.60;86.15;94859.53;5016939;28;20076;-66
2021/01/22 07:33:34;;;;;;;13.02;6.88;;;;;;;2.65;85.95;94849.19;5019115;28;20448;-68
2021/01/22 07:36:19;;;;;;;12.00;4.55;;;;;;;2.78;85.36;94849.00;5023480;28;20516;-67
2021/01/22 07:38:50;;;;;;;14.32;5.90;;;;;;;2.71;84.75;94846.97;5020952;28;20046;-64
2021/01/22 07:41:20;;;;;;;12.75;5.95;;;;;;;2.76;84.62;94849.38;5017356;28;20508;-66
2021/01/22 07:43:53;;;;;;;20.73;7.75;;;;;;;2.98;85.11;94855.13;5008783;28;20042;-66
2021/01/22 07:46:18;;;;;;;9.02;4.82;;;;;;;3.21;83.98;94852.38;5021518;28;20038;-65
2021/01/22 07:48:44;;;;;;;6.68;3.80;;;;;;;3.30;83.32;94852.13;5028726;28;20514;-67
2021/01/22 07:51:29;;;;;;;7.97;3.88;;;;;;;3.35;82.72;94840.97;5009997;28;20038;-67
2021/01/22 07:53:59;;;;;;;15.27;6.75;;;;;;;3.51;82.51;94817.22;5006877;28;20049;-64
2021/01/22 07:56:40;;;;;;;15.13;6.25;;;;;;;4.30;81.36;94825.47;5016544;28;20522;-67
2021/01/22 07:59:07;;;;;;;12.95;5.95;;;;;;;4.60;76.92;94812.59;5002878;28;22199;-64
2021/01/22 08:01:33;;;;;;;7.18;5.18;;;;;;;4.00;79.05;94802.72;5021231;28;20139;-66
2021/01/22 08:03:59;;;;;;;9.48;3.65;;;;;;;3.99;79.85;94797.69;5024051;28;20128;-67
2021/01/22 08:06:24;;;;;;;7.70;2.85;;;;;;;4.33;78.40;94801.13;5020517;28;20650;-65
2021/01/22 08:09:09;;;;;;;4.82;2.20;;;;;;;4.17;78.05;94793.22;5024511;28;20029;-66
2021/01/22 08:11:34;;;;;;;18.38;10.77;;;;;;;3.81;79.84;94789.34;5019970;28;20129;-68
2021/01/22 08:14:00;;;;;;;7.45;2.92;;;;;;;4.01;79.29;94792.66;5027351;28;20132;-67
2021/01/22 08:16:25;;;;;;;5.13;2.80;;;;;;;4.63;77.53;94791.31;5022081;28;20037;-68
2021/01/22 08:18:51;;;;;;;12.02;6.15;;;;;;;5.65;72.83;94795.06;5019317;28;20073;-68
2021/01/22 08:21:18;;;;;;;7.25;3.72;;;;;;;6.21;70.77;94805.78;5016029;28;20052;-65
2021/01/22 08:23:44;;;;;;;4.93;2.20;;;;;;;6.96;67.79;94792.28;5021028;28;20073;-66
2021/01/22 08:26:14;;;;;;;3.55;2.10;;;;;;;7.30;65.85;94780.97;5018209;28;20053;-65
2021/01/22 08:28:41;;;;;;;3.85;2.08;;;;;;;7.16;66.50;94779.03;5015365;28;20041;-66
2021/01/22 08:31:07;;;;;;;7.82;3.88;;;;;;;6.91;68.46;94784.50;5014398;28;20041;-67
2021/01/22 08:33:35;;;;;;;7.80;5.07;;;;;;;6.69;69.68;94786.44;5001457;28;20041;-66
2021/01/22 08:36:01;;;;;;;4.57;2.47;;;;;;;6.89;68.07;94776.72;5024992;28;20037;-67
2021/01/22 08:38:26;;;;;;;11.55;4.95;;;;;;;6.41;69.86;94782.53;5018994;28;20579;-67
2021/01/22 08:40:52;;;;;;;12.63;4.88;;;;;;;6.45;69.70;94786.03;5023066;28;20541;-66
2021/01/22 08:43:17;;;;;;;6.30;2.90;;;;;;;6.76;69.06;94778.28;5017436;28;20490;-68
2021/01/22 08:46:05;;;;;;;5.00;2.45;;;;;;;7.36;68.22;94770.44;5025166;28;20119;-68
2021/01/22 08:48:30;;;;;;;8.18;4.05;;;;;;;7.53;66.48;94763.41;5031734;28;20144;-66
2021/01/22 08:51:02;;;;;;;11.95;5.80;;;;;;;7.88;64.85;94759.75;5040943;28;20025;-66
2021/01/22 08:53:28;;;;;;;26.73;12.57;;;;;;;7.98;64.70;94742.59;5025210;28;20052;-67
2021/01/22 08:56:13;;;;;;;6.88;3.08;;;;;;;7.42;66.59;94738.94;5041126;28;20073;-68
2021/01/22 08:58:57;;;;;;;14.32;11.20;;;;;;;8.51;62.89;94746.19;5024866;28;20132;-68
2021/01/22 09:01:43;;;;;;;8.82;6.25;;;;;;;8.94;63.46;94742.34;5007505;28;20871;-66
2021/01/22 09:04:29;;;;;;;6.70;4.25;;;;;;;10.43;56.36;94743.78;5009119;28;20069;-66
2021/01/22 09:07:00;;;;;;;6.55;3.97;;;;;;;10.91;56.97;94741.84;5016539;28;20045;-67
2021/01/22 09:09:48;;;;;;;11.70;4.07;;;;;;;11.48;54.70;94732.63;5019317;28;20491;-67
2021/01/22 09:12:19;;;;;;;8.38;2.90;;;;;;;11.58;54.38;94735.63;5005660;28;20380;-64
2021/01/22 09:15:07;;;;;;;5.57;2.90;;;;;;;12.60;56.59;94733.91;5024146;28;20076;-66
2021/01/22 09:17:36;;;;;;;9.80;2.97;;;;;;;13.20;51.44;94746.59;5022055;28;20364;-65
2021/01/22 09:20:23;;;;;;;5.93;2.15;;;;;;;13.66;47.77;94743.88;4998883;28;20037;-64
2021/01/22 09:22:53;;;;;;;9.68;2.25;;;;;;;14.25;47.86;94752.84;5013950;28;20402;-65
2021/01/22 09:25:20;;;;;;;3.72;1.63;;;;;;;15.25;44.85;94735.97;5016306;28;20120;-65
2021/01/22 09:27:47;;;;;;;4.00;1.17;;;;;;;13.19;45.26;94704.56;5021942;28;20077;-65
2021/01/22 09:30:15;;;;;;;3.67;2.05;;;;;;;11.47;53.57;94708.41;5022118;28;20075;-63
2021/01/22 09:32:46;;;;;;;8.32;2.80;;;;;;;13.26;47.81;94711.88;5015634;28;20040;-65
2021/01/22 09:35:13;;;;;;;4.55;2.10;;;;;;;13.31;46.55;94724.34;5019389;28;20037;-65
2021/01/22 09:37:38;;;;;;;6.60;3.08;;;;;;;14.58;45.12;94712.13;5024963;28;20048;-64
2021/01/22 09:40:05;;;;;;;4.90;1.60;;;;;;;14.19;46.89;94694.00;5020642;28;20046;-64
2021/01/22 09:42:31;;;;;;;1.92;1.27;;;;;;;10.99;51.54;94674.81;5002592;28;20052;-65
2021/01/22 09:44:56;;;;;;;4.55;2.42;;;;;;;11.37;53.63;94685.47;5022766;28;20127;-64
2021/01/22 09:47:22;;;;;;;9.23;4.00;;;;;;;12.27;50.28;94691.88;5015530;28;20049;-65
2021/01/22 09:49:47;;;;;;;4.15;2.13;;;;;;;12.85;48.47;94683.06;5022269;28;20033;-66
2021/01/22 09:52:14;;;;;;;11.43;5.35;;;;;;;12.45;48.52;94657.78;5016747;28;20044;-65
2021/01/22 09:54:40;;;;;;;4.47;1.45;;;;;;;10.19;54.09;94652.66;5023396;28;20514;-63
2021/01/22 09:57:05;;;;;;;14.85;7.22;;;;;;;11.78;51.86;94673.31;4999415;28;20052;-64
2021/01/22 09:59:31;;;;;;;7.45;2.58;;;;;;;13.39;47.53;94682.47;5022344;28;20045;-65
2021/01/22 10:01:56;;;;;;;3.28;1.73;;;;;;;14.37;45.07;94674.97;4998269;28;20045;-64
2021/01/22 10:04:21;;;;;;;14.10;5.30;;;;;;;12.46;49.10;94675.78;5015106;28;20056;-65
2021/01/22 10:06:48;;;;;;;5.25;2.80;;;;;;;12.44;49.74;94684.44;5025588;28;20064;-65
2021/01/22 10:09:13;;;;;;;9.73;3.17;;;;;;;13.46;47.11;94691.75;5029438;28;20120;-66
2021/01/22 10:11:40;;;;;;;4.22;2.00;;;;;;;13.93;45.27;94680.97;5032644;28;20064;-65
2021/01/22 10:14:06;;;;;;;5.20;2.00;;;;;;;14.10;43.65;94670.66;5016755;28;20239;-64
2021/01/22 10:16:32;;;;;;;5.07;2.45;;;;;;;12.65;46.68;94666.69;5006216;28;20084;-66
2021/01/22 10:19:00;;;;;;;6.13;2.50;;;;;;;12.68;47.51;94679.56;5019967;28;20125;-65
2021/01/22 10:21:26;;;;;;;4.45;2.33;;;;;;;14.00;46.10;94676.50;4995712;28;20072;-64
2021/01/22 10:23:52;;;;;;;4.80;2.67;;;;;;;14.77;42.67;94660.75;5001604;28;20387;-64
2021/01/22 10:26:20;;;;;;;4.15;1.70;;;;;;;11.86;49.14;94649.25;4996564;28;20037;-65
2021/01/22 10:28:46;;;;;;;8.52;4.00;;;;;;;10.40;53.93;94653.53;4984396;28;20507;-64
2021/01/22 10:31:12;;;;;;;6.10;2.75;;;;;;;10.94;53.45;94653.38;4998531;28;20487;-63
2021/01/22 10:33:38;;;;;;;3.53;2.17;;;;;;;11.51;52.12;94634.31;5021304;28;20045;-65
2021/01/22 10:36:04;;;;;;;4.55;2.30;;;;;;;12.14;50.43;94638.88;5020213;28;20041;-64
2021/01/22 10:38:30;;;;;;;5.30;1.90;;;;;;;12.53;49.06;94639.91;5003323;28;20068;-64
2021/01/22 10:40:56;;;;;;;5.10;2.03;;;;;;;12.64;48.63;94637.69;5019684;28;20107;-65
2021/01/22 10:43:22;;;;;;;5.18;2.05;;;;;;;12.93;47.79;94640.47;5015788;28;20602;-65
2021/01/22 10:45:49;;;;;;;3.28;1.63;;;;;;;13.26;47.25;94632.16;5016428;28;20040;-64
2021/01/22 10:48:16;;;;;;;4.82;1.77;;;;;;;13.07;47.84;94638.56;5014785;28;20131;-64
2021/01/22 10:50:41;;;;;;;4.40;2.13;;;;;;;13.20;46.98;94631.16;5014465;28;20062;-64
2021/01/22 10:53:07;;;;;;;3.58;1.58;;;;;;;13.65;45.54;94624.81;5008223;28;20038;-64
2021/01/22 10:55:32;;;;;;;9.50;2.10;;;;;;;13.93;44.61;94622.41;5020308;28;20077;-65
2021/01/22 10:57:58;;;;;;;8.00;1.88;;;;;;;14.27;44.48;94612.75;5019379;28;20486;-64
2021/01/22 11:00:23;;;;;;;2.95;1.90;;;;;;;14.75;42.91;94621.84;5013827;28;20690;-65
2021/01/22 11:02:49;;;;;;;2.83;1.55;;;;;;;15.04;42.17;94612.63;5005759;28;20054;-65
2021/01/22 11:05:14;;;;;;;4.30;1.80;;;;;;;14.59;43.26;94613.72;5009995;28;20045;-65
2021/01/22 11:07:40;;;;;;;5.35;2.28;;;;;;;14.52;43.81;94614.69;5020752;28;20037;-65
2021/01/22 11:10:06;;;;;;;5.00;1.60;;;;;;;14.73;42.85;94602.25;5010413;28;20053;-64
2021/01/22 11:12:31;;;;;;;2.97;1.80;;;;;;;14.97;43.02;94597.09;5020892;28;20121;-65
2021/01/22 11:14:56;;;;;;;3.22;1.80;;;;;;;15.73;40.99;94592.41;5022453;28;20176;-65
2021/01/22 11:17:22;;;;;;;5.32;1.77;;;;;;;16.28;40.04;94580.06;5021602;28;20053;-65
2021/01/22 11:19:47;;;;;;;4.80;1.80;;;;;;;16.70;39.22;94568.53;5020747;28;20095;-65
2021/01/22 11:22:13;;;;;;;3.55;1.77;;;;;;;17.07;37.34;94568.56;5012639;28;20047;-65
2021/01/22 11:24:38;;;;;;;4.90;1.92;;;;;;;17.40;36.19;94565.94;5018626;28;20037;-65
2021/01/22 11:27:04;;;;;;;3.42;1.75;;;;;;;15.69;38.67;94564.19;5016969;28;20629;-65
2021/01/22 11:29:30;;;;;;;4.22;1.92;;;;;;;14.62;41.80;94577.81;5020092;28;20395;-64
2021/01/22 11:31:55;;;;;;;4.82;2.25;;;;;;;15.06;41.22;94564.06;5019891;28;20050;-65
2021/01/22 11:34:20;;;;;;;4.78;2.45;;;;;;;15.42;40.56;94556.50;5015775;28;20041;-64
2021/01/22 11:36:49;;;;;;;7.22;2.60;;;;;;;15.73;39.82;94550.25;5020156;28;20041;-66
2021/01/22 11:39:14;;;;;;;5.22;2.63;;;;;;;15.32;39.96;94552.16;5015435;28;20037;-65
2021/01/22 11:41:40;;;;;;;7.30;2.72;;;;;;;16.60;38.59;94540.09;5021719;28;20491;-66